Estaire, Canada
Current Conditions -  °F | °C
As of 8:00 PM on Saturday 22 Nov 2014 (Local Time) from CYSB Reporting Station
Drizzle Drizzle  
Wind Chill: 26°   Ceiling: 200
Heat Index: 34°   Visibility: 1mi
Dew Point: 34°   Wind: 10mph
Humidity: 100%   Direction: 240°WSW
Pressure: 29.75"   Gusts: NA
Location:  46.3°N, 80.8°W
Report Text: CYSB 230100Z 24009KT 1SM R22/P6000FT/U -DZ BR VV002 01/01 A2975 RMK FG8 SLP090
Loading
Personal Weather Stations






























Interactive Weather Map New forecast layout! Learn more

10-Day Weather Forecast

Advertisements
Track Severe Weather on mobile